sensor_id;sensor_type;location;lat;lon;timestamp;P1;durP1;ratioP1;P2;durP2;ratioP2
65936;SDS011;52707;52.086;5.418;2022-11-30T00:03:38;23.75;;;17.67;;
65936;SDS011;52707;52.086;5.418;2022-11-30T00:06:05;27.08;;;17.13;;
65936;SDS011;52707;52.086;5.418;2022-11-30T00:08:31;29.95;;;17.55;;
65936;SDS011;52707;52.086;5.418;2022-11-30T00:10:58;25.60;;;17.90;;
65936;SDS011;52707;52.086;5.418;2022-11-30T00:13:24;30.13;;;18.88;;
65936;SDS011;52707;52.086;5.418;2022-11-30T00:15:50;26.65;;;17.05;;
65936;SDS011;52707;52.086;5.418;2022-11-30T00:18:17;27.40;;;17.48;;
65936;SDS011;52707;52.086;5.418;2022-11-30T00:20:43;27.80;;;18.70;;
65936;SDS011;52707;52.086;5.418;2022-11-30T00:23:09;30.00;;;18.55;;
65936;SDS011;52707;52.086;5.418;2022-11-30T00:25:36;30.38;;;17.85;;
65936;SDS011;52707;52.086;5.418;2022-11-30T00:28:02;25.15;;;16.98;;
65936;SDS011;52707;52.086;5.418;2022-11-30T00:30:28;25.88;;;17.65;;
65936;SDS011;52707;52.086;5.418;2022-11-30T00:32:56;29.25;;;17.02;;
65936;SDS011;52707;52.086;5.418;2022-11-30T00:35:23;30.17;;;17.17;;
65936;SDS011;52707;52.086;5.418;2022-11-30T00:37:49;25.35;;;17.30;;
65936;SDS011;52707;52.086;5.418;2022-11-30T00:40:15;29.60;;;17.33;;
65936;SDS011;52707;52.086;5.418;2022-11-30T00:42:42;25.88;;;17.15;;
65936;SDS011;52707;52.086;5.418;2022-11-30T00:45:08;28.75;;;18.00;;
65936;SDS011;52707;52.086;5.418;2022-11-30T00:47:35;30.52;;;17.98;;
65936;SDS011;52707;52.086;5.418;2022-11-30T00:50:02;34.25;;;18.88;;
65936;SDS011;52707;52.086;5.418;2022-11-30T00:52:28;29.40;;;18.63;;
65936;SDS011;52707;52.086;5.418;2022-11-30T00:54:55;28.20;;;18.45;;
65936;SDS011;52707;52.086;5.418;2022-11-30T00:57:21;27.88;;;19.05;;
65936;SDS011;52707;52.086;5.418;2022-11-30T00:59:48;28.10;;;18.48;;
65936;SDS011;52707;52.086;5.418;2022-11-30T01:02:14;30.98;;;18.95;;
65936;SDS011;52707;52.086;5.418;2022-11-30T01:04:40;26.83;;;17.85;;
65936;SDS011;52707;52.086;5.418;2022-11-30T01:07:07;33.65;;;18.88;;
65936;SDS011;52707;52.086;5.418;2022-11-30T01:09:33;31.10;;;18.90;;
65936;SDS011;52707;52.086;5.418;2022-11-30T01:11:59;32.85;;;18.67;;
65936;SDS011;52707;52.086;5.418;2022-11-30T01:14:26;27.98;;;17.88;;
65936;SDS011;52707;52.086;5.418;2022-11-30T01:16:52;27.33;;;18.20;;
65936;SDS011;52707;52.086;5.418;2022-11-30T01:19:21;23.48;;;17.25;;
65936;SDS011;52707;52.086;5.418;2022-11-30T01:21:48;30.38;;;18.95;;
65936;SDS011;52707;52.086;5.418;2022-11-30T01:24:14;31.52;;;19.08;;
65936;SDS011;52707;52.086;5.418;2022-11-30T01:26:41;34.72;;;18.75;;
65936;SDS011;52707;52.086;5.418;2022-11-30T01:29:07;35.40;;;19.27;;
65936;SDS011;52707;52.086;5.418;2022-11-30T01:31:33;32.17;;;19.63;;
65936;SDS011;52707;52.086;5.418;2022-11-30T01:34:01;27.52;;;18.77;;
65936;SDS011;52707;52.086;5.418;2022-11-30T01:36:28;28.45;;;18.70;;
65936;SDS011;52707;52.086;5.418;2022-11-30T01:38:55;29.75;;;18.80;;
65936;SDS011;52707;52.086;5.418;2022-11-30T01:41:25;38.58;;;18.90;;
65936;SDS011;52707;52.086;5.418;2022-11-30T01:43:54;31.05;;;18.95;;
65936;SDS011;52707;52.086;5.418;2022-11-30T01:46:33;30.63;;;18.90;;
65936;SDS011;52707;52.086;5.418;2022-11-30T01:51:29;33.45;;;19.77;;
65936;SDS011;52707;52.086;5.418;2022-11-30T01:53:57;28.42;;;19.20;;
65936;SDS011;52707;52.086;5.418;2022-11-30T01:56:23;30.83;;;18.92;;
65936;SDS011;52707;52.086;5.418;2022-11-30T01:58:49;30.95;;;19.45;;
65936;SDS011;52707;52.086;5.418;2022-11-30T02:01:16;33.75;;;19.92;;
65936;SDS011;52707;52.086;5.418;2022-11-30T02:03:45;28.20;;;18.33;;
65936;SDS011;52707;52.086;5.418;2022-11-30T02:06:13;29.92;;;18.08;;
65936;SDS011;52707;52.086;5.418;2022-11-30T02:08:40;33.55;;;19.75;;
65936;SDS011;52707;52.086;5.418;2022-11-30T02:11:07;30.33;;;19.15;;
65936;SDS011;52707;52.086;5.418;2022-11-30T02:16:20;26.58;;;17.48;;
65936;SDS011;52707;52.086;5.418;2022-11-30T02:21:30;39.40;;;17.85;;
65936;SDS011;52707;52.086;5.418;2022-11-30T02:24:03;32.97;;;17.33;;
65936;SDS011;52707;52.086;5.418;2022-11-30T02:31:43;36.97;;;18.60;;
65936;SDS011;52707;52.086;5.418;2022-11-30T02:34:14;29.17;;;17.98;;
65936;SDS011;52707;52.086;5.418;2022-11-30T02:36:41;33.22;;;17.30;;
65936;SDS011;52707;52.086;5.418;2022-11-30T02:39:08;34.72;;;18.88;;
65936;SDS011;52707;52.086;5.418;2022-11-30T02:41:35;34.83;;;18.42;;
65936;SDS011;52707;52.086;5.418;2022-11-30T02:44:03;27.85;;;16.98;;
65936;SDS011;52707;52.086;5.418;2022-11-30T02:46:34;32.10;;;17.05;;
65936;SDS011;52707;52.086;5.418;2022-11-30T02:49:05;29.65;;;17.77;;
65936;SDS011;52707;52.086;5.418;2022-11-30T02:51:33;34.38;;;18.55;;
65936;SDS011;52707;52.086;5.418;2022-11-30T02:54:01;29.67;;;17.60;;
65936;SDS011;52707;52.086;5.418;2022-11-30T02:56:27;34.60;;;19.05;;
65936;SDS011;52707;52.086;5.418;2022-11-30T02:58:54;32.53;;;18.77;;
65936;SDS011;52707;52.086;5.418;2022-11-30T03:01:20;32.80;;;18.30;;
65936;SDS011;52707;52.086;5.418;2022-11-30T03:03:47;38.60;;;17.52;;
65936;SDS011;52707;52.086;5.418;2022-11-30T03:06:13;26.70;;;17.63;;
65936;SDS011;52707;52.086;5.418;2022-11-30T03:08:39;31.70;;;19.30;;
65936;SDS011;52707;52.086;5.418;2022-11-30T03:11:05;31.38;;;18.65;;
65936;SDS011;52707;52.086;5.418;2022-11-30T03:13:32;32.60;;;17.48;;
65936;SDS011;52707;52.086;5.418;2022-11-30T03:16:06;31.60;;;18.75;;
65936;SDS011;52707;52.086;5.418;2022-11-30T03:18:32;30.67;;;18.13;;
65936;SDS011;52707;52.086;5.418;2022-11-30T03:20:58;31.42;;;18.38;;
65936;SDS011;52707;52.086;5.418;2022-11-30T03:23:25;30.25;;;18.45;;
65936;SDS011;52707;52.086;5.418;2022-11-30T03:25:55;44.70;;;18.88;;
65936;SDS011;52707;52.086;5.418;2022-11-30T03:28:22;34.58;;;19.17;;
65936;SDS011;52707;52.086;5.418;2022-11-30T03:30:48;28.30;;;17.42;;
65936;SDS011;52707;52.086;5.418;2022-11-30T03:33:15;32.70;;;17.90;;
65936;SDS011;52707;52.086;5.418;2022-11-30T03:35:43;26.95;;;17.13;;
65936;SDS011;52707;52.086;5.418;2022-11-30T03:38:10;28.73;;;16.65;;
65936;SDS011;52707;52.086;5.418;2022-11-30T03:40:36;37.42;;;17.20;;
65936;SDS011;52707;52.086;5.418;2022-11-30T03:43:03;41.17;;;18.73;;
65936;SDS011;52707;52.086;5.418;2022-11-30T03:45:29;31.20;;;17.70;;
65936;SDS011;52707;52.086;5.418;2022-11-30T03:47:55;27.08;;;17.73;;
65936;SDS011;52707;52.086;5.418;2022-11-30T03:50:22;30.35;;;17.50;;
65936;SDS011;52707;52.086;5.418;2022-11-30T03:52:48;34.20;;;19.05;;
65936;SDS011;52707;52.086;5.418;2022-11-30T03:55:14;30.80;;;18.17;;
65936;SDS011;52707;52.086;5.418;2022-11-30T03:57:41;34.65;;;18.30;;
65936;SDS011;52707;52.086;5.418;2022-11-30T04:00:07;29.40;;;18.13;;
65936;SDS011;52707;52.086;5.418;2022-11-30T04:02:33;37.40;;;18.50;;
65936;SDS011;52707;52.086;5.418;2022-11-30T04:05:05;31.42;;;17.38;;
65936;SDS011;52707;52.086;5.418;2022-11-30T04:07:31;32.78;;;17.27;;
65936;SDS011;52707;52.086;5.418;2022-11-30T04:09:58;28.35;;;16.63;;
65936;SDS011;52707;52.086;5.418;2022-11-30T04:12:30;30.10;;;16.88;;
65936;SDS011;52707;52.086;5.418;2022-11-30T04:14:56;26.42;;;16.65;;
65936;SDS011;52707;52.086;5.418;2022-11-30T04:17:23;30.77;;;17.27;;
65936;SDS011;52707;52.086;5.418;2022-11-30T04:19:49;26.00;;;16.63;;
65936;SDS011;52707;52.086;5.418;2022-11-30T04:22:15;29.70;;;16.45;;
65936;SDS011;52707;52.086;5.418;2022-11-30T04:24:42;25.35;;;16.15;;
65936;SDS011;52707;52.086;5.418;2022-11-30T04:27:08;26.90;;;17.27;;
65936;SDS011;52707;52.086;5.418;2022-11-30T04:29:34;21.60;;;14.68;;
65936;SDS011;52707;52.086;5.418;2022-11-30T04:32:00;31.52;;;16.08;;
65936;SDS011;52707;52.086;5.418;2022-11-30T04:34:27;25.98;;;15.30;;
65936;SDS011;52707;52.086;5.418;2022-11-30T04:36:53;25.00;;;14.93;;
65936;SDS011;52707;52.086;5.418;2022-11-30T04:39:25;26.48;;;15.35;;
65936;SDS011;52707;52.086;5.418;2022-11-30T04:41:51;26.55;;;15.48;;
65936;SDS011;52707;52.086;5.418;2022-11-30T04:44:18;34.30;;;16.17;;
65936;SDS011;52707;52.086;5.418;2022-11-30T04:46:44;24.08;;;14.27;;
65936;SDS011;52707;52.086;5.418;2022-11-30T04:49:11;29.42;;;15.85;;
65936;SDS011;52707;52.086;5.418;2022-11-30T04:51:38;28.80;;;15.73;;
65936;SDS011;52707;52.086;5.418;2022-11-30T04:54:04;23.42;;;14.73;;
65936;SDS011;52707;52.086;5.418;2022-11-30T04:56:30;26.38;;;15.27;;
65936;SDS011;52707;52.086;5.418;2022-11-30T04:58:57;23.25;;;14.38;;
65936;SDS011;52707;52.086;5.418;2022-11-30T05:01:23;25.40;;;15.30;;
65936;SDS011;52707;52.086;5.418;2022-11-30T05:03:49;22.88;;;14.68;;
65936;SDS011;52707;52.086;5.418;2022-11-30T05:06:16;31.10;;;16.10;;
65936;SDS011;52707;52.086;5.418;2022-11-30T05:08:42;27.73;;;14.75;;
65936;SDS011;52707;52.086;5.418;2022-11-30T05:11:08;29.60;;;14.15;;
65936;SDS011;52707;52.086;5.418;2022-11-30T05:13:34;27.60;;;14.10;;
65936;SDS011;52707;52.086;5.418;2022-11-30T05:16:01;35.95;;;15.77;;
65936;SDS011;52707;52.086;5.418;2022-11-30T05:18:27;41.80;;;15.73;;
65936;SDS011;52707;52.086;5.418;2022-11-30T05:20:54;24.50;;;16.33;;
65936;SDS011;52707;52.086;5.418;2022-11-30T05:23:20;26.02;;;15.23;;
65936;SDS011;52707;52.086;5.418;2022-11-30T05:25:47;27.95;;;16.60;;
65936;SDS011;52707;52.086;5.418;2022-11-30T05:28:13;27.40;;;16.00;;
65936;SDS011;52707;52.086;5.418;2022-11-30T05:30:40;25.55;;;15.10;;
65936;SDS011;52707;52.086;5.418;2022-11-30T05:33:07;32.42;;;15.30;;
65936;SDS011;52707;52.086;5.418;2022-11-30T05:35:34;25.83;;;15.38;;
65936;SDS011;52707;52.086;5.418;2022-11-30T05:38:01;32.13;;;16.70;;
65936;SDS011;52707;52.086;5.418;2022-11-30T05:40:27;33.35;;;16.90;;
65936;SDS011;52707;52.086;5.418;2022-11-30T05:42:55;29.02;;;15.80;;
65936;SDS011;52707;52.086;5.418;2022-11-30T05:45:22;23.02;;;15.50;;
65936;SDS011;52707;52.086;5.418;2022-11-30T05:47:48;22.98;;;15.32;;
65936;SDS011;52707;52.086;5.418;2022-11-30T05:50:14;25.98;;;16.33;;
65936;SDS011;52707;52.086;5.418;2022-11-30T05:52:41;32.97;;;15.20;;
65936;SDS011;52707;52.086;5.418;2022-11-30T05:55:07;25.02;;;15.15;;
65936;SDS011;52707;52.086;5.418;2022-11-30T05:57:37;21.85;;;14.52;;
65936;SDS011;52707;52.086;5.418;2022-11-30T06:00:04;28.83;;;14.83;;
65936;SDS011;52707;52.086;5.418;2022-11-30T06:02:31;23.98;;;15.07;;
65936;SDS011;52707;52.086;5.418;2022-11-30T06:04:57;23.58;;;15.07;;
65936;SDS011;52707;52.086;5.418;2022-11-30T06:07:23;21.75;;;14.07;;
65936;SDS011;52707;52.086;5.418;2022-11-30T06:09:50;31.25;;;15.40;;
65936;SDS011;52707;52.086;5.418;2022-11-30T06:12:16;25.80;;;15.05;;
65936;SDS011;52707;52.086;5.418;2022-11-30T06:14:42;25.20;;;14.85;;
65936;SDS011;52707;52.086;5.418;2022-11-30T06:17:09;29.52;;;14.45;;
65936;SDS011;52707;52.086;5.418;2022-11-30T06:19:35;24.27;;;14.85;;
65936;SDS011;52707;52.086;5.418;2022-11-30T06:22:01;23.65;;;15.63;;
65936;SDS011;52707;52.086;5.418;2022-11-30T06:24:27;26.75;;;14.50;;
65936;SDS011;52707;52.086;5.418;2022-11-30T06:26:54;26.15;;;15.27;;
65936;SDS011;52707;52.086;5.418;2022-11-30T06:29:20;21.75;;;14.50;;
65936;SDS011;52707;52.086;5.418;2022-11-30T06:31:47;27.45;;;14.48;;
65936;SDS011;52707;52.086;5.418;2022-11-30T06:34:13;29.60;;;15.88;;
65936;SDS011;52707;52.086;5.418;2022-11-30T06:36:39;24.88;;;14.82;;
65936;SDS011;52707;52.086;5.418;2022-11-30T06:39:05;21.20;;;14.18;;
65936;SDS011;52707;52.086;5.418;2022-11-30T06:41:33;24.25;;;14.38;;
65936;SDS011;52707;52.086;5.418;2022-11-30T06:44:00;25.85;;;14.63;;
65936;SDS011;52707;52.086;5.418;2022-11-30T06:46:26;22.63;;;13.32;;
65936;SDS011;52707;52.086;5.418;2022-11-30T06:48:52;20.05;;;12.73;;
65936;SDS011;52707;52.086;5.418;2022-11-30T06:51:19;18.75;;;13.15;;
65936;SDS011;52707;52.086;5.418;2022-11-30T06:53:45;31.45;;;13.73;;
65936;SDS011;52707;52.086;5.418;2022-11-30T06:56:11;27.13;;;14.70;;
65936;SDS011;52707;52.086;5.418;2022-11-30T06:58:38;23.02;;;13.65;;
65936;SDS011;52707;52.086;5.418;2022-11-30T07:01:06;24.95;;;14.07;;
65936;SDS011;52707;52.086;5.418;2022-11-30T07:03:32;22.60;;;13.70;;
65936;SDS011;52707;52.086;5.418;2022-11-30T07:05:58;23.20;;;12.45;;
65936;SDS011;52707;52.086;5.418;2022-11-30T07:08:25;21.17;;;12.98;;
65936;SDS011;52707;52.086;5.418;2022-11-30T07:10:51;22.77;;;13.07;;
65936;SDS011;52707;52.086;5.418;2022-11-30T07:13:18;19.90;;;13.93;;
65936;SDS011;52707;52.086;5.418;2022-11-30T07:15:44;25.35;;;13.93;;
65936;SDS011;52707;52.086;5.418;2022-11-30T07:18:11;20.25;;;13.88;;
65936;SDS011;52707;52.086;5.418;2022-11-30T07:20:37;20.02;;;12.30;;
65936;SDS011;52707;52.086;5.418;2022-11-30T07:23:04;22.73;;;13.23;;
65936;SDS011;52707;52.086;5.418;2022-11-30T07:25:49;18.52;;;12.15;;
65936;SDS011;52707;52.086;5.418;2022-11-30T07:28:32;20.13;;;11.20;;
65936;SDS011;52707;52.086;5.418;2022-11-30T07:30:58;25.25;;;12.18;;
65936;SDS011;52707;52.086;5.418;2022-11-30T07:33:24;19.77;;;12.10;;
65936;SDS011;52707;52.086;5.418;2022-11-30T07:35:51;24.42;;;11.02;;
65936;SDS011;52707;52.086;5.418;2022-11-30T07:38:18;19.88;;;11.07;;
65936;SDS011;52707;52.086;5.418;2022-11-30T07:40:44;23.50;;;12.57;;
65936;SDS011;52707;52.086;5.418;2022-11-30T07:43:10;17.40;;;11.50;;
65936;SDS011;52707;52.086;5.418;2022-11-30T07:45:36;19.75;;;12.95;;
65936;SDS011;52707;52.086;5.418;2022-11-30T07:48:03;20.02;;;12.68;;
65936;SDS011;52707;52.086;5.418;2022-11-30T07:50:30;20.52;;;13.23;;
65936;SDS011;52707;52.086;5.418;2022-11-30T07:52:57;20.55;;;11.90;;
65936;SDS011;52707;52.086;5.418;2022-11-30T07:55:23;18.15;;;11.95;;
65936;SDS011;52707;52.086;5.418;2022-11-30T07:57:49;19.73;;;12.02;;
65936;SDS011;52707;52.086;5.418;2022-11-30T08:00:16;17.27;;;10.70;;
65936;SDS011;52707;52.086;5.418;2022-11-30T08:02:42;19.08;;;11.93;;
65936;SDS011;52707;52.086;5.418;2022-11-30T08:05:08;21.75;;;12.43;;
65936;SDS011;52707;52.086;5.418;2022-11-30T08:07:37;17.83;;;10.60;;
65936;SDS011;52707;52.086;5.418;2022-11-30T08:10:03;20.75;;;11.63;;
65936;SDS011;52707;52.086;5.418;2022-11-30T08:12:30;19.88;;;10.73;;
65936;SDS011;52707;52.086;5.418;2022-11-30T08:14:56;19.05;;;11.35;;
65936;SDS011;52707;52.086;5.418;2022-11-30T08:17:42;17.30;;;9.63;;
65936;SDS011;52707;52.086;5.418;2022-11-30T08:20:10;15.85;;;10.65;;
65936;SDS011;52707;52.086;5.418;2022-11-30T08:22:37;23.92;;;10.75;;
65936;SDS011;52707;52.086;5.418;2022-11-30T08:25:03;17.90;;;11.68;;
65936;SDS011;52707;52.086;5.418;2022-11-30T08:27:29;21.58;;;11.27;;
65936;SDS011;52707;52.086;5.418;2022-11-30T08:29:56;15.63;;;10.68;;
65936;SDS011;52707;52.086;5.418;2022-11-30T08:32:22;24.30;;;11.60;;
65936;SDS011;52707;52.086;5.418;2022-11-30T08:34:48;20.85;;;11.90;;
65936;SDS011;52707;52.086;5.418;2022-11-30T08:37:15;16.55;;;10.70;;
65936;SDS011;52707;52.086;5.418;2022-11-30T08:39:41;20.00;;;11.50;;
65936;SDS011;52707;52.086;5.418;2022-11-30T08:42:08;19.70;;;10.65;;
65936;SDS011;52707;52.086;5.418;2022-11-30T08:44:34;19.85;;;9.98;;
65936;SDS011;52707;52.086;5.418;2022-11-30T08:47:00;20.60;;;10.73;;
65936;SDS011;52707;52.086;5.418;2022-11-30T08:49:27;19.00;;;10.82;;
65936;SDS011;52707;52.086;5.418;2022-11-30T08:51:53;18.52;;;11.38;;
65936;SDS011;52707;52.086;5.418;2022-11-30T08:54:41;23.85;;;11.35;;
65936;SDS011;52707;52.086;5.418;2022-11-30T08:57:08;18.02;;;12.43;;
65936;SDS011;52707;52.086;5.418;2022-11-30T08:59:34;24.23;;;12.25;;
65936;SDS011;52707;52.086;5.418;2022-11-30T09:02:00;19.40;;;12.02;;
65936;SDS011;52707;52.086;5.418;2022-11-30T09:04:27;25.88;;;13.52;;
65936;SDS011;52707;52.086;5.418;2022-11-30T09:06:53;29.75;;;14.52;;
65936;SDS011;52707;52.086;5.418;2022-11-30T09:09:24;24.70;;;14.20;;
65936;SDS011;52707;52.086;5.418;2022-11-30T09:11:50;27.75;;;16.52;;
65936;SDS011;52707;52.086;5.418;2022-11-30T09:14:17;25.25;;;15.25;;
65936;SDS011;52707;52.086;5.418;2022-11-30T09:16:43;27.75;;;15.52;;
65936;SDS011;52707;52.086;5.418;2022-11-30T09:19:09;26.45;;;16.88;;
65936;SDS011;52707;52.086;5.418;2022-11-30T09:21:36;35.70;;;18.52;;
65936;SDS011;52707;52.086;5.418;2022-11-30T09:24:02;30.17;;;17.40;;
65936;SDS011;52707;52.086;5.418;2022-11-30T09:26:28;34.35;;;18.80;;
65936;SDS011;52707;52.086;5.418;2022-11-30T09:28:55;30.08;;;17.75;;
65936;SDS011;52707;52.086;5.418;2022-11-30T09:31:22;31.52;;;18.15;;
65936;SDS011;52707;52.086;5.418;2022-11-30T09:33:49;44.30;;;18.85;;
65936;SDS011;52707;52.086;5.418;2022-11-30T09:36:19;36.55;;;18.17;;
65936;SDS011;52707;52.086;5.418;2022-11-30T09:38:46;33.17;;;19.10;;
65936;SDS011;52707;52.086;5.418;2022-11-30T09:46:36;35.90;;;20.88;;
65936;SDS011;52707;52.086;5.418;2022-11-30T09:49:15;35.83;;;19.13;;
65936;SDS011;52707;52.086;5.418;2022-11-30T09:51:44;37.22;;;20.17;;
65936;SDS011;52707;52.086;5.418;2022-11-30T09:54:15;37.92;;;19.88;;
65936;SDS011;52707;52.086;5.418;2022-11-30T10:01:37;33.15;;;20.35;;
65936;SDS011;52707;52.086;5.418;2022-11-30T10:04:11;31.77;;;20.15;;
65936;SDS011;52707;52.086;5.418;2022-11-30T10:06:48;29.00;;;19.23;;
65936;SDS011;52707;52.086;5.418;2022-11-30T10:10:02;29.92;;;18.80;;
65936;SDS011;52707;52.086;5.418;2022-11-30T10:12:11;27.80;;;17.52;;
65936;SDS011;52707;52.086;5.418;2022-11-30T10:17:27;26.63;;;17.90;;
65936;SDS011;52707;52.086;5.418;2022-11-30T10:25:20;26.55;;;17.60;;
65936;SDS011;52707;52.086;5.418;2022-11-30T10:27:51;26.73;;;16.90;;
65936;SDS011;52707;52.086;5.418;2022-11-30T10:30:22;24.73;;;17.35;;
65936;SDS011;52707;52.086;5.418;2022-11-30T10:32:52;23.95;;;16.77;;
65936;SDS011;52707;52.086;5.418;2022-11-30T10:35:39;24.48;;;17.27;;
65936;SDS011;52707;52.086;5.418;2022-11-30T10:38:14;24.45;;;16.70;;
65936;SDS011;52707;52.086;5.418;2022-11-30T10:40:46;25.58;;;18.08;;
65936;SDS011;52707;52.086;5.418;2022-11-30T10:46:21;28.58;;;18.25;;
65936;SDS011;52707;52.086;5.418;2022-11-30T10:48:58;30.58;;;17.23;;
65936;SDS011;52707;52.086;5.418;2022-11-30T10:51:27;22.73;;;15.95;;
65936;SDS011;52707;52.086;5.418;2022-11-30T10:53:54;22.75;;;15.13;;
65936;SDS011;52707;52.086;5.418;2022-11-30T10:56:22;19.73;;;15.35;;
65936;SDS011;52707;52.086;5.418;2022-11-30T10:59:08;22.00;;;15.32;;
65936;SDS011;52707;52.086;5.418;2022-11-30T11:01:37;18.50;;;14.32;;
65936;SDS011;52707;52.086;5.418;2022-11-30T11:04:25;20.80;;;14.63;;
65936;SDS011;52707;52.086;5.418;2022-11-30T11:06:53;23.95;;;15.32;;
65936;SDS011;52707;52.086;5.418;2022-11-30T11:09:31;18.92;;;14.95;;
65936;SDS011;52707;52.086;5.418;2022-11-30T11:12:01;19.40;;;14.60;;
65936;SDS011;52707;52.086;5.418;2022-11-30T11:14:28;22.10;;;13.80;;
65936;SDS011;52707;52.086;5.418;2022-11-30T11:17:03;17.45;;;13.25;;
65936;SDS011;52707;52.086;5.418;2022-11-30T11:19:38;17.02;;;13.63;;
65936;SDS011;52707;52.086;5.418;2022-11-30T11:22:20;21.00;;;14.43;;
65936;SDS011;52707;52.086;5.418;2022-11-30T11:24:48;18.45;;;13.90;;
65936;SDS011;52707;52.086;5.418;2022-11-30T11:27:28;18.30;;;12.98;;
65936;SDS011;52707;52.086;5.418;2022-11-30T11:32:22;20.35;;;13.20;;
65936;SDS011;52707;52.086;5.418;2022-11-30T11:34:50;22.38;;;13.52;;
65936;SDS011;52707;52.086;5.418;2022-11-30T11:37:21;16.23;;;13.32;;
65936;SDS011;52707;52.086;5.418;2022-11-30T11:39:58;18.77;;;13.77;;
65936;SDS011;52707;52.086;5.418;2022-11-30T11:42:25;17.73;;;13.15;;
65936;SDS011;52707;52.086;5.418;2022-11-30T11:44:52;17.00;;;12.88;;
65936;SDS011;52707;52.086;5.418;2022-11-30T11:47:24;15.98;;;12.93;;
65936;SDS011;52707;52.086;5.418;2022-11-30T11:49:58;16.02;;;12.68;;
65936;SDS011;52707;52.086;5.418;2022-11-30T11:52:28;16.08;;;12.88;;
65936;SDS011;52707;52.086;5.418;2022-11-30T11:54:55;19.05;;;13.40;;
65936;SDS011;52707;52.086;5.418;2022-11-30T11:57:24;20.02;;;13.75;;
65936;SDS011;52707;52.086;5.418;2022-11-30T11:59:57;23.05;;;14.15;;
65936;SDS011;52707;52.086;5.418;2022-11-30T12:05:15;19.85;;;14.50;;
65936;SDS011;52707;52.086;5.418;2022-11-30T12:07:47;19.02;;;14.23;;
65936;SDS011;52707;52.086;5.418;2022-11-30T12:13:18;17.75;;;12.60;;
65936;SDS011;52707;52.086;5.418;2022-11-30T12:20:57;18.58;;;13.55;;
65936;SDS011;52707;52.086;5.418;2022-11-30T12:25:53;17.92;;;13.00;;
65936;SDS011;52707;52.086;5.418;2022-11-30T12:31:13;18.90;;;13.27;;
65936;SDS011;52707;52.086;5.418;2022-11-30T12:38:44;18.15;;;14.30;;
65936;SDS011;52707;52.086;5.418;2022-11-30T12:46:41;19.30;;;14.98;;
65936;SDS011;52707;52.086;5.418;2022-11-30T12:54:25;22.92;;;14.98;;
65936;SDS011;52707;52.086;5.418;2022-11-30T12:57:08;23.95;;;16.42;;
65936;SDS011;52707;52.086;5.418;2022-11-30T12:59:40;21.58;;;16.23;;
65936;SDS011;52707;52.086;5.418;2022-11-30T13:02:14;22.73;;;16.67;;
65936;SDS011;52707;52.086;5.418;2022-11-30T13:04:49;23.45;;;16.70;;
65936;SDS011;52707;52.086;5.418;2022-11-30T13:12:47;26.65;;;17.33;;
65936;SDS011;52707;52.086;5.418;2022-11-30T13:15:16;27.73;;;17.25;;
65936;SDS011;52707;52.086;5.418;2022-11-30T13:17:43;27.42;;;18.38;;
65936;SDS011;52707;52.086;5.418;2022-11-30T13:25:19;24.55;;;17.42;;
65936;SDS011;52707;52.086;5.418;2022-11-30T13:28:11;25.38;;;17.80;;
65936;SDS011;52707;52.086;5.418;2022-11-30T13:35:51;29.30;;;17.33;;
65936;SDS011;52707;52.086;5.418;2022-11-30T13:38:19;28.88;;;17.55;;
65936;SDS011;52707;52.086;5.418;2022-11-30T13:41:03;25.92;;;17.83;;
65936;SDS011;52707;52.086;5.418;2022-11-30T13:43:33;23.90;;;16.67;;
65936;SDS011;52707;52.086;5.418;2022-11-30T13:46:01;27.70;;;17.42;;
65936;SDS011;52707;52.086;5.418;2022-11-30T13:48:37;26.60;;;17.35;;
65936;SDS011;52707;52.086;5.418;2022-11-30T13:51:04;25.15;;;17.02;;
65936;SDS011;52707;52.086;5.418;2022-11-30T13:53:32;24.30;;;16.58;;
65936;SDS011;52707;52.086;5.418;2022-11-30T13:56:04;26.88;;;17.08;;
65936;SDS011;52707;52.086;5.418;2022-11-30T13:58:33;26.77;;;16.70;;
65936;SDS011;52707;52.086;5.418;2022-11-30T14:01:00;23.23;;;15.23;;
65936;SDS011;52707;52.086;5.418;2022-11-30T14:03:28;26.10;;;16.35;;
65936;SDS011;52707;52.086;5.418;2022-11-30T14:05:55;24.85;;;15.73;;
65936;SDS011;52707;52.086;5.418;2022-11-30T14:10:51;24.85;;;16.13;;
65936;SDS011;52707;52.086;5.418;2022-11-30T14:21:00;26.10;;;16.27;;
65936;SDS011;52707;52.086;5.418;2022-11-30T14:23:39;24.48;;;16.13;;
65936;SDS011;52707;52.086;5.418;2022-11-30T14:26:12;28.77;;;15.48;;
65936;SDS011;52707;52.086;5.418;2022-11-30T14:31:06;24.35;;;15.50;;
65936;SDS011;52707;52.086;5.418;2022-11-30T14:33:42;25.63;;;16.25;;
65936;SDS011;52707;52.086;5.418;2022-11-30T14:36:09;25.27;;;15.57;;
65936;SDS011;52707;52.086;5.418;2022-11-30T14:38:40;23.58;;;14.88;;
65936;SDS011;52707;52.086;5.418;2022-11-30T14:44:10;28.85;;;16.30;;
65936;SDS011;52707;52.086;5.418;2022-11-30T14:46:36;26.08;;;15.20;;
65936;SDS011;52707;52.086;5.418;2022-11-30T14:49:04;26.23;;;15.35;;
65936;SDS011;52707;52.086;5.418;2022-11-30T14:51:31;31.65;;;13.50;;
65936;SDS011;52707;52.086;5.418;2022-11-30T14:54:21;20.65;;;13.80;;
65936;SDS011;52707;52.086;5.418;2022-11-30T14:56:48;21.85;;;13.73;;
65936;SDS011;52707;52.086;5.418;2022-11-30T15:01:57;22.20;;;13.82;;
65936;SDS011;52707;52.086;5.418;2022-11-30T15:04:24;21.75;;;13.65;;
65936;SDS011;52707;52.086;5.418;2022-11-30T15:06:53;24.48;;;14.23;;
65936;SDS011;52707;52.086;5.418;2022-11-30T15:09:20;19.77;;;13.10;;
65936;SDS011;52707;52.086;5.418;2022-11-30T15:11:48;24.52;;;14.02;;
65936;SDS011;52707;52.086;5.418;2022-11-30T15:14:14;23.63;;;14.75;;
65936;SDS011;52707;52.086;5.418;2022-11-30T15:16:48;23.95;;;14.10;;
65936;SDS011;52707;52.086;5.418;2022-11-30T15:19:17;24.10;;;13.52;;
65936;SDS011;52707;52.086;5.418;2022-11-30T15:21:45;24.35;;;13.57;;
65936;SDS011;52707;52.086;5.418;2022-11-30T15:24:12;22.85;;;14.23;;
65936;SDS011;52707;52.086;5.418;2022-11-30T15:31:42;25.80;;;14.18;;
65936;SDS011;52707;52.086;5.418;2022-11-30T15:36:44;28.88;;;15.27;;
65936;SDS011;52707;52.086;5.418;2022-11-30T15:39:18;25.15;;;15.23;;
65936;SDS011;52707;52.086;5.418;2022-11-30T15:41:46;25.10;;;14.80;;
65936;SDS011;52707;52.086;5.418;2022-11-30T15:46:54;28.38;;;15.55;;
65936;SDS011;52707;52.086;5.418;2022-11-30T15:51:47;23.73;;;14.57;;
65936;SDS011;52707;52.086;5.418;2022-11-30T15:54:40;22.75;;;13.98;;
65936;SDS011;52707;52.086;5.418;2022-11-30T15:57:07;22.48;;;13.80;;
65936;SDS011;52707;52.086;5.418;2022-11-30T15:59:34;25.90;;;14.18;;
65936;SDS011;52707;52.086;5.418;2022-11-30T16:02:01;23.58;;;13.68;;
65936;SDS011;52707;52.086;5.418;2022-11-30T16:07:18;22.65;;;12.85;;
65936;SDS011;52707;52.086;5.418;2022-11-30T16:09:44;19.35;;;13.40;;
65936;SDS011;52707;52.086;5.418;2022-11-30T16:12:17;25.90;;;14.95;;
65936;SDS011;52707;52.086;5.418;2022-11-30T16:14:45;24.70;;;14.30;;
65936;SDS011;52707;52.086;5.418;2022-11-30T16:17:11;24.88;;;14.55;;
65936;SDS011;52707;52.086;5.418;2022-11-30T16:19:37;25.42;;;14.68;;
65936;SDS011;52707;52.086;5.418;2022-11-30T16:22:04;26.88;;;15.25;;
65936;SDS011;52707;52.086;5.418;2022-11-30T16:24:30;27.02;;;15.70;;
65936;SDS011;52707;52.086;5.418;2022-11-30T16:26:56;27.85;;;15.95;;
65936;SDS011;52707;52.086;5.418;2022-11-30T16:29:23;25.90;;;15.27;;